Latest Coastal Weather Observations for Browse Island

IDD60701

Issued at 10:01 am CST Saturday 30 May 2015 (issued every 10 minutes, with the page automatically refreshed every 10 minutes)

About coastal observations | Map of coastal stations | Coastal observations for NT | Marine services | Other Formats
Station Details ID: 200784 Name: BROWSE ISLAND Lat: -14.11 Lon: 123.55 Height: 3.7 m
Data from the previous 72 hours. | See also: Recent months for locations in Northern Territory
Date/Time
CST
Temp

°C
Wind Pressure Rain
since 9am
mm
Weather Cloud Vis
km
Sea
Height
m
Swell
Dir
 
Speed
knots
Gust
knots
hPa Trend Height
m
Period
s
Dir
30/10:00am 28.6 SE 8 9 1014.3 - - - - - - - - -
30/09:30am 28.5 SSE 8 9 1014.3 - - - - - - - - -
30/09:00am 28.3 SSE 8 10 1014.2 - - - - - - - - -
30/08:30am 28.2 SSE 7 9 1014.1 - - - - - - - - -
30/08:00am 28.0 SSE 8 9 1014.0 - - - - - - - - -
30/07:30am 28.0 SSE 9 11 1014.0 - - - - - - - - -
30/07:00am 28.0 SSE 8 9 1013.8 - - - - - - - - -
30/06:30am 28.0 SE 8 9 1013.7 - - - - - - - - -
30/06:00am 28.0 SE 8 9 1013.5 - - - - - - - - -
30/05:30am 28.0 SE 8 9 1013.4 - - - - - - - - -
30/05:00am 27.9 SSE 7 9 1013.2 - - - - - - - - -
30/04:30am 27.9 SSE 7 9 1013.2 - - - - - - - - -
30/04:00am 27.6 SSE 7 9 1013.3 - - - - - - - - -
30/03:30am 27.8 SSE 8 9 1013.4 - - - - - - - - -
30/03:00am 27.7 SSE 6 7 1013.6 - - - - - - - - -
30/02:30am 28.0 S 6 7 1013.7 - - - - - - - - -
30/02:00am 28.0 S 6 7 1014.0 - - - - - - - - -
30/01:30am 28.0 S 5 5 1014.1 - - - - - - - - -
30/01:00am 28.0 S 5 6 1014.3 - - - - - - - - -
30/12:30am 28.1 S 4 5 1014.6 - - - - - - - - -
30/12:00am 28.1 CALM 0 0 1014.6 - - - - - - - - -
 
Date/Time
CST
Temp

°C
Wind Pressure Rain
since 9am
mm
Weather Cloud Vis
km
Sea
Height
m
Swell
Dir
 
Speed
knots
Gust
knots
hPa Trend Height
m
Period
s
Dir
29/11:30pm 28.2 CALM 0 0 1014.6 - - - - - - - - -
29/11:00pm 28.1 CALM 0 0 1014.7 - - - - - - - - -
29/10:30pm 28.3 NE 3 4 1014.9 - - - - - - - - -
29/10:00pm 28.2 ENE 4 5 1014.7 - - - - - - - - -
29/09:30pm 28.2 ESE 1 3 1014.6 - - - - - - - - -
29/09:00pm 28.2 ESE 2 3 1014.3 - - - - - - - - -
29/08:30pm 28.3 ESE 4 5 1014.0 - - - - - - - - -
29/08:00pm 28.3 ESE 3 5 1013.5 - - - - - - - - -
29/07:30pm 28.3 SE 4 4 1013.3 - - - - - - - - -
29/07:00pm 28.6 SE 5 6 1013.0 - - - - - - - - -
29/06:30pm 28.7 SSE 5 6 1012.7 - - - - - - - - -
29/06:00pm 28.9 SE 5 6 1012.3 - - - - - - - - -
29/05:30pm 29.6 E 4 5 1012.1 - - - - - - - - -
29/05:00pm 29.7 E 4 6 1011.9 - - - - - - - - -
29/04:30pm 29.9 SE 5 6 1012.0 - - - - - - - - -
29/04:00pm 29.6 SSE 5 6 1012.0 - - - - - - - - -
29/03:30pm 29.8 SSE 5 6 1012.1 - - - - - - - - -
29/03:00pm 30.0 SSE 5 6 1012.2 - - - - - - - - -
29/02:30pm 30.0 SSE 6 6 1012.4 - - - - - - - - -
29/02:00pm 29.0 S 6 8 1012.8 - - - - - - - - -
29/01:30pm 28.8 S 7 8 1013.3 - - - - - - - - -
29/01:00pm 28.8 S 8 9 1013.6 - - - - - - - - -
29/12:30pm 28.8 S 8 9 1013.9 - - - - - - - - -
29/12:00pm 29.5 S 6 7 1014.1 - - - - - - - - -
29/11:30am 29.6 SSE 5 5 1014.4 - - - - - - - - -
29/11:00am 29.7 SE 5 6 1014.5 - - - - - - - - -
29/10:30am 29.5 SE 6 7 1014.5 - - - - - - - - -
29/10:00am 29.3 SE 7 8 1014.6 - - - - - - - - -
29/09:30am 28.7 SSE 8 9 1014.4 - - - - - - - - -
29/09:00am 28.2 SSE 10 12 1014.1 - - - - - - - - -
29/08:30am 28.2 SSE 9 10 1013.8 - - - - - - - - -
29/08:00am 28.1 SSE 8 9 1013.5 - - - - - - - - -
29/07:30am 28.1 SSE 7 9 1013.1 - - - - - - - - -
29/07:00am 28.1 SSE 8 9 1012.9 - - - - - - - - -
29/06:30am 27.9 SE 7 8 1012.5 - - - - - - - - -
29/06:00am 27.9 SE 7 8 1012.4 - - - - - - - - -
29/05:30am 27.8 SE 8 9 1012.2 - - - - - - - - -
29/05:00am 27.8 SSE 8 10 1012.2 - - - - - - - - -
29/04:30am 27.8 SE 7 8 1012.1 - - - - - - - - -
29/04:00am 27.6 SE 7 9 1012.1 - - - - - - - - -
29/03:30am 27.6 SE 7 8 1012.3 - - - - - - - - -
29/03:00am 27.6 SE 7 8 1012.5 - - - - - - - - -
29/02:30am 27.7 SE 6 7 1012.8 - - - - - - - - -
29/02:00am 27.7 SE 6 6 1013.0 - - - - - - - - -
29/01:30am 27.7 SE 5 6 1013.3 - - - - - - - - -
29/01:00am 27.8 SSE 6 6 1013.5 - - - - - - - - -
29/12:30am 27.9 SE 6 6 1013.7 - - - - - - - - -
29/12:00am 27.9 SE 5 6 1013.9 - - - - - - - - -
 
Date/Time
CST
Temp

°C
Wind Pressure Rain
since 9am
mm
Weather Cloud Vis
km
Sea
Height
m
Swell
Dir
 
Speed
knots
Gust
knots
hPa Trend Height
m
Period
s
Dir
28/11:30pm 27.8 ESE 4 5 1014.0 - - - - - - - - -
28/11:00pm 27.8 SE 3 4 1014.0 - - - - - - - - -
28/10:30pm 27.9 SE 4 5 1014.0 - - - - - - - - -
28/10:00pm 27.9 SE 4 5 1014.0 - - - - - - - - -
28/09:30pm 28.0 SE 5 6 1013.8 - - - - - - - - -
28/09:00pm 28.0 SE 5 6 1013.5 - - - - - - - - -
28/08:30pm 28.1 ESE 5 6 1013.4 - - - - - - - - -
28/08:00pm 28.1 ESE 5 5 1013.1 - - - - - - - - -
28/07:30pm 28.2 SSE 5 6 1012.8 - - - - - - - - -
28/07:00pm 28.1 SE 6 7 1012.4 - - - - - - - - -
28/06:30pm 28.2 SSE 6 8 1012.0 - - - - - - - - -
28/06:00pm 28.3 SE 7 8 1011.7 - - - - - - - - -
28/05:30pm 28.4 SE 7 9 1011.5 - - - - - - - - -
28/05:00pm 28.7 SE 8 10 1011.3 - - - - - - - - -
28/04:30pm 28.8 SE 9 11 1011.1 - - - - - - - - -
28/04:00pm 28.3 SE 10 11 1011.2 - - - - - - - - -
28/03:30pm 28.5 SE 9 11 1011.4 - - - - - - - - -
28/03:00pm 29.3 SE 9 11 1011.7 - - - - - - - - -
28/02:30pm 29.0 SE 10 11 1011.9 - - - - - - - - -
28/02:00pm 28.6 SSE 10 12 1012.2 - - - - - - - - -
28/01:30pm 29.1 SE 9 11 1012.6 - - - - - - - - -
28/01:00pm 28.6 SSE 9 12 1013.0 - - - - - - - - -
28/12:30pm 28.9 SSE 9 11 1013.3 - - - - - - - - -
28/12:00pm 28.9 SSE 10 11 1013.5 - - - - - - - - -
28/11:30am 28.5 SSE 11 13 1013.9 - - - - - - - - -
28/11:00am 28.5 SSE 11 12 1014.0 - - - - - - - - -
28/10:30am 28.4 SSE 8 10 1014.0 - - - - - - - - -
28/10:00am 28.3 SSE 8 10 1013.7 - - - - - - - - -
28/09:30am 28.1 SSE 9 11 1013.6 - - - - - - - - -
28/09:00am 28.0 SSE 8 10 1013.4 - - - - - - - - -
28/08:30am 27.8 SE 7 8 1013.1 - - - - - - - - -
28/08:00am 27.7 SSE 7 8 1012.8 - - - - - - - - -
28/07:30am 27.7 SE 7 8 1012.5 - - - - - - - - -
28/07:00am 27.6 SE 6 7 1012.2 - - - - - - - - -
28/06:30am 27.7 SE 6 7 1012.1 - - - - - - - - -
28/06:00am 27.6 SE 7 9 1012.0 - - - - - - - - -
28/05:30am 27.5 SE 7 8 1011.9 - - - - - - - - -
28/05:00am 27.3 SE 7 8 1012.0 - - - - - - - - -
28/04:30am 27.5 SE 8 9 1011.8 - - - - - - - - -
28/04:00am 27.5 SSE 7 8 1011.9 - - - - - - - - -
28/03:30am 27.4 SSE 6 8 1012.0 - - - - - - - - -
28/03:00am 27.4 SSE 7 8 1012.3 - - - - - - - - -
28/02:30am 27.6 SSE 7 8 1012.5 - - - - - - - - -
28/02:00am 27.5 SSE 7 8 1012.6 - - - - - - - - -
28/01:30am 27.6 SSE 7 7 1012.8 - - - - - - - - -
28/01:00am 27.6 S 7 8 1013.1 - - - - - - - - -
28/12:30am 27.5 S 6 7 1013.4 - - - - - - - - -
28/12:00am 27.5 S 6 7 1013.4 - - - - - - - - -
 
Date/Time
CST
Temp

°C
Wind Pressure Rain
since 9am
mm
Weather Cloud Vis
km
Sea
Height
m
Swell
Dir
 
Speed
knots
Gust
knots
hPa Trend Height
m
Period
s
Dir
27/11:30pm 27.6 SSE 6 7 1013.5 - - - - - - - - -
27/11:00pm 27.7 S 5 7 1013.5 - - - - - - - - -
27/10:30pm 27.6 S 5 6 1013.4 - - - - - - - - -
27/10:00pm 27.7 S 5 6 1013.3 - - - - - - - - -
27/09:30pm 27.6 SSE 5 6 1013.3 - - - - - - - - -
27/09:00pm 27.8 SSE 5 7 1013.2 - - - - - - - - -
27/08:30pm 27.9 S 6 7 1013.1 - - - - - - - - -
27/08:00pm 27.8 S 6 7 1012.7 - - - - - - - - -
27/07:30pm 27.9 S 6 7 1012.4 - - - - - - - - -
27/07:00pm 28.0 SSE 5 6 1012.1 - - - - - - - - -
27/06:30pm 28.1 SSE 5 6 1011.8 - - - - - - - - -
27/06:00pm 28.2 SSE 5 7 1011.6 - - - - - - - - -
27/05:30pm 28.3 S 6 7 1011.3 - - - - - - - - -
27/05:00pm 28.3 SSE 5 7 1011.2 - - - - - - - - -
27/04:30pm 28.9 SSE 6 7 1011.0 - - - - - - - - -
27/04:00pm 28.5 SSE 7 8 1011.1 - - - - - - - - -
27/03:30pm 28.3 SSE 7 8 1011.1 - - - - - - - - -
27/03:00pm 29.0 SSE 6 7 1011.6 - - - - - - - - -
27/02:30pm 28.7 SSE 8 9 1012.1 - - - - - - - - -
27/02:00pm 28.3 SSE 9 11 1012.5 - - - - - - - - -
27/01:30pm 28.6 SSE 8 9 1013.0 - - - - - - - - -
27/01:00pm 28.8 SSE 8 9 1013.4 - - - - - - - - -
27/12:30pm 29.2 SE 8 10 1014.0 - - - - - - - - -
27/12:00pm 28.8 SSE 9 11 1014.4 - - - - - - - - -

Other Formats:

Comma delimited format used in spreadsheet applications
http://www.bom.gov.au/fwo/IDD60701/IDD60701.94103.axf

JavaScript Object Notation format (JSON) in row-major order
http://www.bom.gov.au/fwo/IDD60701/IDD60701.94103.json